Ana Sayfa
METAR-TAF:

METAR-TAF

Havaalanları :

Iranshahr, İran

Enlem: 27-12N, Boylam: 060-42E, yükseklik: 591 m

Güncel hava durumu gözlemi

Rapor saat 12:00 UTC de 31 dakika önce yapıldı.
Sakin rüzgar
Sıcaklık 18°C
Nem 88%
Basınç 1018 hPa
Görüş mesafesi: 6000 m
2500 ft yükseklikte az bulutlu
9000 ft yükseklikte çok bulutlu

METAR: OIZI 081200Z 00000KT 6000 FEW025 OVC090 18/16 Q1018

Saat: 16:01 (12:31 UTC)


TAF: eksik

4.000'den fazla havaalanı için hava durumu gözlemleri ve tahminleri (METAR ve TAF raporları).

Kullanılabilir istasyonlar harita üzerinde sarı ve kırmızı noktalarla gösterilir.

İstasyonun adını görmek için fareyi noktanın üzerinde gezdirin.

Sonrasında hava gözlem ve tahminlerini görmek için tıklayın.

Haritayı değiştirmek için: yaklaştırmak için siyah artı işaretli yeşil düğmeye ve uzaklaştırmak için de eksi işaretli düğmeye hızla tıklayın; bitişik haritalar için yeşil okları kullanın.


METAR-TAF: